createdAt,value
2023-03-07T00:02:14.681Z,13.90
2023-03-07T00:04:45.539Z,14.20
2023-03-07T00:07:12.944Z,13.80
2023-03-07T00:09:39.526Z,14.30
2023-03-07T00:12:08.001Z,15.40
2023-03-07T00:14:35.758Z,15.00
2023-03-07T00:17:02.668Z,16.10
2023-03-07T00:19:29.292Z,15.20
2023-03-07T00:21:56.086Z,15.40
2023-03-07T00:24:23.590Z,14.90
2023-03-07T00:26:50.584Z,15.40
2023-03-07T00:29:17.531Z,17.50
2023-03-07T00:32:04.248Z,17.40
2023-03-07T00:34:32.450Z,15.70
2023-03-07T00:36:59.073Z,16.20
2023-03-07T00:39:26.973Z,16.50
2023-03-07T00:41:54.361Z,16.50
2023-03-07T00:44:22.025Z,16.20
2023-03-07T00:46:49.204Z,16.30
2023-03-07T00:49:16.239Z,17.00
2023-03-07T00:51:43.037Z,14.60
2023-03-07T00:54:10.056Z,15.00
2023-03-07T00:56:36.907Z,14.40
2023-03-07T00:59:03.977Z,16.60
2023-03-07T01:01:31.156Z,16.30
2023-03-07T01:03:57.938Z,15.90
2023-03-07T01:06:28.342Z,15.50
2023-03-07T01:08:56.806Z,15.20
2023-03-07T01:11:26.135Z,15.30
2023-03-07T01:13:59.416Z,14.90
2023-03-07T01:16:29.724Z,15.30
2023-03-07T01:18:58.684Z,16.60
2023-03-07T01:21:37.130Z,15.00
2023-03-07T01:24:05.238Z,14.10
2023-03-07T01:26:34.475Z,16.30
2023-03-07T01:29:03.299Z,14.90
2023-03-07T01:31:33.560Z,16.20
2023-03-07T01:34:02.469Z,15.80
2023-03-07T01:36:33.434Z,14.90
2023-03-07T01:39:14.746Z,14.20
2023-03-07T01:41:55.434Z,16.50
2023-03-07T01:44:26.206Z,16.60
2023-03-07T01:46:59.881Z,17.30
2023-03-07T01:49:36.934Z,15.90
2023-03-07T01:52:14.308Z,15.80
2023-03-07T01:57:33.802Z,16.00
2023-03-07T02:00:06.413Z,15.10
2023-03-07T02:02:43.627Z,15.30
2023-03-07T02:05:27.564Z,15.40
2023-03-07T02:07:54.547Z,15.10
2023-03-07T02:10:24.003Z,15.90
2023-03-07T02:12:51.723Z,16.80
2023-03-07T02:15:21.628Z,16.50
2023-03-07T02:17:49.397Z,15.30
2023-03-07T02:20:52.937Z,17.10
2023-03-07T02:23:41.513Z,15.90
2023-03-07T02:26:26.276Z,17.20
2023-03-07T02:28:53.222Z,17.60
2023-03-07T02:31:20.475Z,18.50
2023-03-07T02:33:49.148Z,19.20
2023-03-07T02:36:18.528Z,19.10
2023-03-07T02:38:52.327Z,17.20
2023-03-07T02:41:27.106Z,17.90
2023-03-07T02:43:53.822Z,16.90
2023-03-07T02:46:20.773Z,17.50
2023-03-07T02:48:48.364Z,19.10
2023-03-07T02:51:15.694Z,19.40
2023-03-07T02:53:43.549Z,18.50
2023-03-07T02:56:10.821Z,18.50
2023-03-07T02:58:37.730Z,17.40
2023-03-07T03:01:04.516Z,17.30
2023-03-07T03:03:31.378Z,18.90
2023-03-07T03:05:59.402Z,18.00
2023-03-07T03:08:26.290Z,18.80
2023-03-07T03:10:53.762Z,19.00
2023-03-07T03:13:21.433Z,17.50
2023-03-07T03:15:48.228Z,16.80
2023-03-07T03:18:16.964Z,16.00
2023-03-07T03:20:44.283Z,16.00
2023-03-07T03:23:11.680Z,15.40
2023-03-07T03:25:40.202Z,16.70
2023-03-07T03:28:08.094Z,17.00
2023-03-07T03:30:35.738Z,14.60
2023-03-07T03:33:03.917Z,15.00
2023-03-07T03:35:32.903Z,15.10
2023-03-07T03:38:00.028Z,14.00
2023-03-07T03:40:31.420Z,15.20
2023-03-07T03:42:58.605Z,14.60
2023-03-07T03:45:25.636Z,14.50
2023-03-07T03:47:52.485Z,13.80
2023-03-07T03:50:19.166Z,13.90
2023-03-07T03:52:46.760Z,13.60
2023-03-07T03:55:13.740Z,14.30
2023-03-07T03:57:42.756Z,13.70
2023-03-07T04:00:13.670Z,14.30
2023-03-07T04:02:40.573Z,15.40
2023-03-07T04:05:08.912Z,14.20
2023-03-07T04:07:41.033Z,14.40
2023-03-07T04:10:08.703Z,13.00
2023-03-07T04:12:37.564Z,13.70
2023-03-07T04:15:06.792Z,13.90
2023-03-07T04:17:40.158Z,15.50
2023-03-07T04:20:13.648Z,15.00
2023-03-07T04:22:40.330Z,15.80
2023-03-07T04:25:07.256Z,14.50
2023-03-07T04:27:34.826Z,13.50
2023-03-07T04:30:05.101Z,13.40
2023-03-07T04:32:33.608Z,14.10
2023-03-07T04:35:00.206Z,14.60
2023-03-07T04:37:27.111Z,13.60
2023-03-07T04:39:54.028Z,14.20
2023-03-07T04:42:20.627Z,15.10
2023-03-07T04:44:47.423Z,14.30
2023-03-07T04:47:15.154Z,13.30
2023-03-07T04:49:43.566Z,14.70
2023-03-07T04:52:10.208Z,14.30
2023-03-07T04:54:36.916Z,14.70
2023-03-07T04:57:03.894Z,15.30
2023-03-07T04:59:38.460Z,14.10
2023-03-07T05:02:06.874Z,17.40
2023-03-07T05:04:33.704Z,15.10
2023-03-07T05:07:02.402Z,13.80
2023-03-07T05:09:30.032Z,16.30
2023-03-07T05:11:58.774Z,13.60
2023-03-07T05:14:25.930Z,13.50
2023-03-07T05:16:52.861Z,12.70
2023-03-07T05:19:19.515Z,12.80
2023-03-07T05:22:06.954Z,13.60
2023-03-07T05:24:38.668Z,13.40
2023-03-07T05:27:06.261Z,13.80
2023-03-07T05:29:32.934Z,12.90
2023-03-07T05:32:00.940Z,11.90
2023-03-07T05:34:27.704Z,12.30
2023-03-07T05:36:57.609Z,12.50
2023-03-07T05:39:27.147Z,11.60
2023-03-07T05:41:54.518Z,12.30
2023-03-07T05:44:22.493Z,14.00
2023-03-07T05:46:49.606Z,13.60
2023-03-07T05:49:20.046Z,13.10
2023-03-07T05:51:46.969Z,12.90
2023-03-07T05:54:13.705Z,12.10
2023-03-07T05:56:40.499Z,14.00
2023-03-07T05:59:08.967Z,13.40
2023-03-07T06:01:41.285Z,13.40
2023-03-07T06:04:08.308Z,14.30
2023-03-07T06:06:35.378Z,16.40
2023-03-07T06:09:03.863Z,14.60
2023-03-07T06:11:31.859Z,12.30
2023-03-07T06:13:58.901Z,12.70
2023-03-07T06:16:26.010Z,14.90
2023-03-07T06:18:54.873Z,13.90
2023-03-07T06:21:21.769Z,13.90
2023-03-07T06:23:48.460Z,14.80
2023-03-07T06:26:19.011Z,14.50
2023-03-07T06:28:53.601Z,14.10
2023-03-07T06:31:20.690Z,13.20
2023-03-07T06:33:47.744Z,13.50
2023-03-07T06:36:16.781Z,14.00
2023-03-07T06:38:45.470Z,15.10
2023-03-07T06:41:12.536Z,15.70
2023-03-07T06:43:39.702Z,16.10
2023-03-07T06:46:06.668Z,14.20
2023-03-07T06:48:36.746Z,14.70
2023-03-07T06:51:09.019Z,16.90
2023-03-07T06:53:36.427Z,15.70
2023-03-07T06:56:03.803Z,16.40
2023-03-07T06:58:31.179Z,14.70
2023-03-07T07:00:58.592Z,13.90
2023-03-07T07:03:25.893Z,16.40
2023-03-07T07:05:52.523Z,14.00
2023-03-07T07:08:19.347Z,13.90
2023-03-07T07:10:47.229Z,14.60
2023-03-07T07:13:15.500Z,13.10
2023-03-07T07:15:44.921Z,13.10
2023-03-07T07:18:13.518Z,14.60
2023-03-07T07:20:42.731Z,14.20
2023-03-07T07:23:10.289Z,14.60
2023-03-07T07:25:40.081Z,14.50
2023-03-07T07:28:07.079Z,13.40
2023-03-07T07:30:33.936Z,13.90
2023-03-07T07:33:09.973Z,14.70
2023-03-07T07:35:38.678Z,14.40
2023-03-07T07:38:08.021Z,15.40
2023-03-07T07:40:35.487Z,16.30
2023-03-07T07:43:02.185Z,14.80
2023-03-07T07:45:42.847Z,16.20
2023-03-07T07:48:10.469Z,14.70
2023-03-07T07:50:37.976Z,15.60
2023-03-07T07:53:05.631Z,15.40
2023-03-07T07:55:32.401Z,17.00
2023-03-07T07:57:59.287Z,16.20
2023-03-07T08:00:26.336Z,17.00
2023-03-07T08:02:52.984Z,16.60
2023-03-07T08:05:24.127Z,16.80
2023-03-07T08:07:50.936Z,17.20
2023-03-07T08:10:17.787Z,17.80
2023-03-07T08:12:50.693Z,17.10
2023-03-07T08:15:20.890Z,15.70
2023-03-07T08:17:52.572Z,13.70
2023-03-07T08:20:21.789Z,15.90
2023-03-07T08:22:49.959Z,16.50
2023-03-07T08:25:22.233Z,15.80
2023-03-07T08:27:52.986Z,14.20
2023-03-07T08:30:26.466Z,14.90
2023-03-07T08:32:53.902Z,15.20
2023-03-07T08:35:21.138Z,14.60
2023-03-07T08:37:48.644Z,15.30
2023-03-07T08:40:15.871Z,15.40
2023-03-07T08:42:43.399Z,16.00
2023-03-07T08:45:11.961Z,14.50
2023-03-07T08:47:39.018Z,15.10
2023-03-07T08:50:06.525Z,14.00
2023-03-07T08:52:34.257Z,16.50
2023-03-07T08:55:01.068Z,17.40
2023-03-07T08:57:32.916Z,17.40
2023-03-07T09:00:01.490Z,14.70
2023-03-07T09:02:28.579Z,16.60
2023-03-07T09:04:55.186Z,16.70
2023-03-07T09:07:21.907Z,15.80
2023-03-07T09:09:49.961Z,14.10
2023-03-07T09:12:17.367Z,16.00
2023-03-07T09:14:45.393Z,15.40
2023-03-07T09:17:12.092Z,16.10
2023-03-07T09:19:39.461Z,17.80
2023-03-07T09:22:06.401Z,18.10
2023-03-07T09:24:34.097Z,15.50
2023-03-07T09:27:05.052Z,16.50
2023-03-07T09:29:39.862Z,16.20
2023-03-07T09:32:11.305Z,17.10
2023-03-07T09:34:39.892Z,15.80
2023-03-07T09:37:07.748Z,14.70
2023-03-07T09:39:37.977Z,14.60
2023-03-07T09:42:34.166Z,15.30
2023-03-07T09:45:22.663Z,14.80
2023-03-07T09:50:53.952Z,14.90
2023-03-07T09:53:31.476Z,15.30
2023-03-07T09:55:58.949Z,14.50
2023-03-07T09:58:26.030Z,14.40
2023-03-07T10:00:56.683Z,14.80
2023-03-07T10:03:43.316Z,16.00
2023-03-07T10:06:16.066Z,15.50
2023-03-07T10:08:47.000Z,15.60
2023-03-07T10:11:22.542Z,14.80
2023-03-07T10:13:58.288Z,14.10
2023-03-07T10:16:36.089Z,16.00
2023-03-07T10:19:27.084Z,13.70
2023-03-07T10:22:16.532Z,15.40
2023-03-07T10:24:59.014Z,16.00
2023-03-07T10:27:26.910Z,13.60
2023-03-07T10:29:55.614Z,13.60
2023-03-07T10:32:46.029Z,12.70
2023-03-07T10:35:20.066Z,13.90
2023-03-07T10:37:51.584Z,14.30
2023-03-07T10:40:42.458Z,13.60
2023-03-07T10:43:24.897Z,12.30
2023-03-07T10:45:59.408Z,12.80
2023-03-07T10:48:26.553Z,13.10
2023-03-07T10:51:00.967Z,12.70
2023-03-07T10:53:31.772Z,12.40
2023-03-07T10:56:08.741Z,12.80
2023-03-07T10:58:36.078Z,14.20
2023-03-07T11:01:05.711Z,14.20
2023-03-07T11:03:51.436Z,12.60
2023-03-07T11:06:27.072Z,13.90
2023-03-07T11:08:55.617Z,14.50
2023-03-07T11:11:29.983Z,14.20
2023-03-07T11:14:09.546Z,15.90
2023-03-07T11:16:53.497Z,12.40
2023-03-07T11:19:44.660Z,14.40
2023-03-07T11:22:21.727Z,14.30
2023-03-07T11:24:51.830Z,14.00
2023-03-07T11:27:25.629Z,14.20
2023-03-07T11:32:34.143Z,13.90
2023-03-07T11:35:06.518Z,13.10
2023-03-07T11:37:38.437Z,13.10
2023-03-07T11:41:05.237Z,13.00
2023-03-07T11:43:48.167Z,13.30
2023-03-07T11:46:27.070Z,13.80
2023-03-07T11:49:22.590Z,14.00
2023-03-07T11:52:05.438Z,15.20
2023-03-07T11:54:39.415Z,13.20
2023-03-07T11:57:21.634Z,13.00
2023-03-07T12:00:11.118Z,14.10
2023-03-07T12:02:58.199Z,14.10
2023-03-07T12:05:32.648Z,14.00
2023-03-07T12:08:06.667Z,15.00
2023-03-07T12:10:57.204Z,14.20
2023-03-07T12:14:02.830Z,15.10
2023-03-07T12:16:47.404Z,15.40
2023-03-07T12:19:51.298Z,15.00
2023-03-07T12:22:28.526Z,12.20
2023-03-07T12:25:03.438Z,14.30
2023-03-07T12:27:34.127Z,13.90
2023-03-07T12:30:04.481Z,12.40
2023-03-07T12:32:33.061Z,13.10
2023-03-07T12:35:05.442Z,12.60
2023-03-07T12:38:08.393Z,11.60
2023-03-07T12:40:47.377Z,13.30
2023-03-07T12:43:32.669Z,13.40
2023-03-07T12:46:19.967Z,12.10
2023-03-07T12:48:59.963Z,13.50
2023-03-07T12:51:36.418Z,13.50
2023-03-07T12:54:08.348Z,14.90
2023-03-07T12:56:54.150Z,13.30
2023-03-07T12:59:21.751Z,13.10
2023-03-07T13:02:01.640Z,12.80
2023-03-07T13:04:33.978Z,14.30
2023-03-07T13:07:26.778Z,13.20
2023-03-07T13:09:57.222Z,15.20
2023-03-07T13:12:28.975Z,12.80
2023-03-07T13:14:57.135Z,14.90
2023-03-07T13:17:33.164Z,13.60
2023-03-07T13:20:20.628Z,12.80
2023-03-07T13:22:47.909Z,13.30
2023-03-07T13:25:27.691Z,13.20
2023-03-07T13:27:58.516Z,13.80
2023-03-07T13:30:25.914Z,13.60
2023-03-07T13:32:55.443Z,13.20
2023-03-07T13:35:28.388Z,13.50
2023-03-07T13:38:12.884Z,13.90
2023-03-07T13:40:45.119Z,12.40
2023-03-07T13:43:26.334Z,14.00
2023-03-07T13:45:58.613Z,13.20
2023-03-07T13:48:28.290Z,13.10
2023-03-07T13:50:54.814Z,13.50
2023-03-07T13:53:27.496Z,12.20
2023-03-07T13:56:14.512Z,11.50
2023-03-07T13:59:00.991Z,12.60
2023-03-07T14:01:32.459Z,11.60
2023-03-07T14:04:08.167Z,11.90
2023-03-07T14:06:40.404Z,12.00
2023-03-07T14:09:10.408Z,11.40
2023-03-07T14:15:08.488Z,12.60
2023-03-07T14:17:54.875Z,12.40
2023-03-07T14:20:36.234Z,15.00
2023-03-07T14:23:30.215Z,14.40
2023-03-07T14:26:18.665Z,15.60
2023-03-07T14:28:49.043Z,11.40
2023-03-07T14:31:25.717Z,12.10
2023-03-07T14:33:54.014Z,12.60
2023-03-07T14:36:28.144Z,11.40
2023-03-07T14:38:57.892Z,11.20
2023-03-07T14:41:50.460Z,11.80
2023-03-07T14:44:46.404Z,13.10
2023-03-07T14:47:45.297Z,13.60
2023-03-07T14:50:13.588Z,12.50
2023-03-07T14:52:41.929Z,13.00
2023-03-07T14:55:16.681Z,14.10
2023-03-07T14:57:46.318Z,15.30
2023-03-07T15:00:15.007Z,14.20
2023-03-07T15:02:54.257Z,13.50
2023-03-07T15:05:36.614Z,14.50
2023-03-07T15:08:17.633Z,13.90
2023-03-07T15:10:46.695Z,13.80
2023-03-07T15:13:23.773Z,14.10
2023-03-07T15:15:57.328Z,14.60
2023-03-07T15:18:37.969Z,12.90
2023-03-07T15:21:08.914Z,13.20
2023-03-07T15:23:37.234Z,13.80
2023-03-07T15:26:07.009Z,16.10
2023-03-07T15:28:36.925Z,21.30
2023-03-07T15:31:05.339Z,20.00
2023-03-07T15:33:33.678Z,15.50
2023-03-07T15:36:07.140Z,15.70
2023-03-07T15:38:35.355Z,14.10
2023-03-07T15:41:31.753Z,16.50
2023-03-07T15:44:04.260Z,17.10
2023-03-07T15:46:32.844Z,16.40
2023-03-07T15:49:02.695Z,18.50
2023-03-07T15:51:36.094Z,16.30
2023-03-07T15:54:20.209Z,15.60
2023-03-07T15:56:56.182Z,16.30
2023-03-07T15:59:36.446Z,32.80
2023-03-07T16:02:33.095Z,16.60
2023-03-07T16:05:06.803Z,18.10
2023-03-07T16:07:38.715Z,19.80
2023-03-07T16:10:08.216Z,18.10
2023-03-07T16:12:37.479Z,19.70
2023-03-07T16:15:06.917Z,19.40
2023-03-07T16:17:37.955Z,20.30
2023-03-07T16:20:17.769Z,19.80
2023-03-07T16:22:49.803Z,19.30
2023-03-07T16:25:17.864Z,17.70
2023-03-07T16:27:51.917Z,16.50
2023-03-07T16:30:22.993Z,19.60
2023-03-07T16:32:51.253Z,18.80
2023-03-07T16:35:24.601Z,20.20
2023-03-07T16:37:53.694Z,17.30
2023-03-07T16:40:23.044Z,19.90
2023-03-07T16:43:29.763Z,20.30
2023-03-07T16:45:59.263Z,20.30
2023-03-07T16:48:27.339Z,21.80
2023-03-07T16:50:55.310Z,22.90
2023-03-07T16:53:24.360Z,22.40
2023-03-07T16:55:52.670Z,36.20
2023-03-07T16:58:26.324Z,29.50
2023-03-07T17:03:22.397Z,20.30
2023-03-07T17:05:50.403Z,25.90
2023-03-07T17:08:18.710Z,37.20
2023-03-07T17:10:46.886Z,23.30
2023-03-07T17:13:17.048Z,22.80
2023-03-07T17:15:47.179Z,23.00
2023-03-07T17:18:16.847Z,22.90
2023-03-07T17:20:46.352Z,25.20
2023-03-07T17:23:15.059Z,28.10
2023-03-07T17:25:43.467Z,29.30
2023-03-07T17:28:13.189Z,32.10
2023-03-07T17:30:45.139Z,31.70
2023-03-07T17:33:15.254Z,32.90
2023-03-07T17:35:43.968Z,31.30
2023-03-07T17:38:11.898Z,31.30
2023-03-07T17:40:40.067Z,31.10
2023-03-07T17:43:12.747Z,30.20
2023-03-07T17:45:51.231Z,28.30
2023-03-07T17:48:20.972Z,35.50
2023-03-07T17:50:49.061Z,35.10
2023-03-07T17:53:17.922Z,39.10
2023-03-07T17:55:45.978Z,37.70
2023-03-07T17:58:14.946Z,46.70
2023-03-07T18:00:42.887Z,41.40
2023-03-07T18:03:11.048Z,42.40
2023-03-07T18:05:40.243Z,41.10
2023-03-07T18:08:08.933Z,40.70
2023-03-07T18:10:37.357Z,41.60
2023-03-07T18:13:05.695Z,42.60
2023-03-07T18:15:35.350Z,38.50
2023-03-07T18:18:04.068Z,36.40
2023-03-07T18:20:33.388Z,37.30
2023-03-07T18:23:02.034Z,44.40
2023-03-07T18:25:30.188Z,39.10
2023-03-07T18:28:01.552Z,43.10
2023-03-07T18:30:31.425Z,47.40
2023-03-07T18:33:02.286Z,45.20
2023-03-07T18:35:30.811Z,46.70
2023-03-07T18:37:58.707Z,47.30
2023-03-07T18:40:26.717Z,43.10
2023-03-07T18:42:59.429Z,41.20
2023-03-07T18:45:28.568Z,39.90
2023-03-07T18:47:58.182Z,41.60
2023-03-07T18:50:27.004Z,40.60
2023-03-07T18:52:58.354Z,42.70
2023-03-07T18:55:27.270Z,42.10
2023-03-07T18:57:56.009Z,40.00
2023-03-07T19:00:24.081Z,38.40
2023-03-07T19:02:52.019Z,31.30
2023-03-07T19:05:20.485Z,30.90
2023-03-07T19:07:48.919Z,32.50
2023-03-07T19:10:17.311Z,33.90
2023-03-07T19:12:46.191Z,32.40
2023-03-07T19:15:14.772Z,31.70
2023-03-07T19:17:43.959Z,31.60
2023-03-07T19:20:13.067Z,30.10
2023-03-07T19:22:42.221Z,31.70
2023-03-07T19:25:10.383Z,28.20
2023-03-07T19:27:39.509Z,28.00
2023-03-07T19:30:11.469Z,27.50
2023-03-07T19:32:43.349Z,29.40
2023-03-07T19:35:11.910Z,31.70
2023-03-07T19:37:43.682Z,31.60
2023-03-07T19:40:13.016Z,30.30
2023-03-07T19:42:41.868Z,30.00
2023-03-07T19:45:11.198Z,28.50
2023-03-07T19:47:43.365Z,28.20
2023-03-07T19:50:14.655Z,26.40
2023-03-07T19:52:45.025Z,25.10
2023-03-07T19:55:13.844Z,26.20
2023-03-07T19:57:43.077Z,26.50
2023-03-07T20:00:12.455Z,24.10
2023-03-07T20:02:40.870Z,25.20
2023-03-07T20:05:09.658Z,25.00
2023-03-07T20:07:42.914Z,24.50
2023-03-07T20:10:11.901Z,25.80
2023-03-07T20:12:40.463Z,27.10
2023-03-07T20:15:09.289Z,32.90
2023-03-07T20:17:41.735Z,39.60
2023-03-07T20:20:12.110Z,36.90
2023-03-07T20:22:42.530Z,37.70
2023-03-07T20:25:11.366Z,36.80
2023-03-07T20:27:41.288Z,34.00
2023-03-07T20:30:10.500Z,35.00
2023-03-07T20:32:39.293Z,32.60
2023-03-07T20:35:07.864Z,34.30
2023-03-07T20:37:36.860Z,33.40
2023-03-07T20:40:08.837Z,33.20
2023-03-07T20:42:37.419Z,31.20
2023-03-07T20:45:06.011Z,33.40
2023-03-07T20:47:38.281Z,30.50
2023-03-07T20:50:06.726Z,33.30
2023-03-07T20:52:38.105Z,36.30
2023-03-07T20:55:07.412Z,36.90
2023-03-07T20:57:35.729Z,35.50
2023-03-07T21:00:08.425Z,34.30
2023-03-07T21:02:36.686Z,36.90
2023-03-07T21:05:05.193Z,39.90
2023-03-07T21:07:33.441Z,38.60
2023-03-07T21:10:01.685Z,34.10
2023-03-07T21:12:31.572Z,36.50
2023-03-07T21:15:01.223Z,34.50
2023-03-07T21:17:29.428Z,33.90
2023-03-07T21:19:57.447Z,37.00
2023-03-07T21:22:25.643Z,36.20
2023-03-07T21:24:53.599Z,35.40
2023-03-07T21:27:21.882Z,35.80
2023-03-07T21:29:49.963Z,37.10
2023-03-07T21:32:26.561Z,33.60
2023-03-07T21:34:54.923Z,32.10
2023-03-07T21:37:27.586Z,30.10
2023-03-07T21:39:56.606Z,27.20
2023-03-07T21:42:24.560Z,27.40
2023-03-07T21:44:54.804Z,25.70
2023-03-07T21:47:23.605Z,25.90
2023-03-07T21:49:53.005Z,26.40
2023-03-07T21:52:21.071Z,23.40
2023-03-07T21:54:49.089Z,22.20
2023-03-07T21:57:17.153Z,23.90
2023-03-07T21:59:45.625Z,22.90
2023-03-07T22:02:14.508Z,21.60
2023-03-07T22:04:43.434Z,22.40
2023-03-07T22:07:14.262Z,20.20
2023-03-07T22:09:42.261Z,19.50
2023-03-07T22:12:10.331Z,18.30
2023-03-07T22:14:40.517Z,16.90
2023-03-07T22:17:12.237Z,18.50
2023-03-07T22:19:40.423Z,17.70
2023-03-07T22:22:08.340Z,18.10
2023-03-07T22:24:36.499Z,17.40
2023-03-07T22:27:06.021Z,17.30
2023-03-07T22:29:34.177Z,16.70
2023-03-07T22:32:02.263Z,17.30
2023-03-07T22:34:30.420Z,15.40
2023-03-07T22:37:00.654Z,16.40
2023-03-07T22:39:28.896Z,15.60
2023-03-07T22:41:56.983Z,16.80
2023-03-07T22:44:25.114Z,16.40
2023-03-07T22:46:56.786Z,14.90
2023-03-07T22:49:26.749Z,13.90
2023-03-07T22:51:55.405Z,16.10
2023-03-07T22:54:23.590Z,16.30
2023-03-07T22:56:51.633Z,17.30
2023-03-07T22:59:19.646Z,16.40
2023-03-07T23:01:47.809Z,17.50
2023-03-07T23:04:15.739Z,15.50
2023-03-07T23:06:44.869Z,14.90
2023-03-07T23:09:12.810Z,16.50
2023-03-07T23:11:46.863Z,14.60
2023-03-07T23:14:15.382Z,15.80
2023-03-07T23:16:43.423Z,16.10
2023-03-07T23:19:11.332Z,15.00
2023-03-07T23:21:40.383Z,13.90
2023-03-07T23:24:11.806Z,14.00
2023-03-07T23:26:40.389Z,16.40
2023-03-07T23:29:10.087Z,15.50
2023-03-07T23:31:39.910Z,14.90
2023-03-07T23:34:17.107Z,14.40
2023-03-07T23:36:48.736Z,15.00
2023-03-07T23:39:17.607Z,15.80
2023-03-07T23:41:46.516Z,15.10
2023-03-07T23:44:15.554Z,15.50
2023-03-07T23:46:43.896Z,16.80
2023-03-07T23:49:12.626Z,13.60
2023-03-07T23:51:40.879Z,14.70
2023-03-07T23:54:09.323Z,14.50
2023-03-07T23:56:37.910Z,15.10
2023-03-07T23:59:05.859Z,15.50
